Time;durP1;ratioP1;P1;durP2;ratioP2;P2;SDS_P1;SDS_P2;PMS_P1;PMS_P2;Temp;Humidity;BMP_temperature;BMP_pressure;BME280_temperature;BME280_humidity;BME280_pressure;Samples;Min_cycle;Max_cycle;Signal;HPM_P1;HPM_P2
2022/07/29 00:00:35;;;;;;;0.97;0.63;;;;;25.30;100530.00;;;;2078281;28;20236;-52
2022/07/29 00:01:35;;;;;;;1.00;0.83;;;;;25.30;100528.00;;;;2078161;28;20217;-53
2022/07/29 00:02:36;;;;;;;1.53;0.80;;;;;25.30;100530.00;;;;2072678;28;20226;-53
2022/07/29 00:03:36;;;;;;;0.90;0.60;;;;;25.30;100533.00;;;;2078451;28;20220;-53
2022/07/29 00:04:36;;;;;;;1.43;0.70;;;;;25.30;100529.00;;;;2078763;28;20202;-53
2022/07/29 00:05:38;;;;;;;1.00;0.70;;;;;25.30;100523.00;;;;2078890;28;20347;-53
2022/07/29 00:06:38;;;;;;;1.00;0.73;;;;;25.30;100535.00;;;;2083469;28;20209;-54
2022/07/29 00:07:40;;;;;;;1.30;0.77;;;;;25.30;100528.00;;;;2085877;28;20463;-53
2022/07/29 00:08:40;;;;;;;1.10;0.70;;;;;25.30;100526.00;;;;2086477;28;20205;-53
2022/07/29 00:09:41;;;;;;;1.60;0.80;;;;;25.30;100524.00;;;;2086529;28;20451;-53
2022/07/29 00:10:41;;;;;;;0.90;0.60;;;;;25.30;100524.00;;;;2086875;28;20208;-53
2022/07/29 00:11:42;;;;;;;2.80;0.73;;;;;25.30;100520.00;;;;2084895;28;20227;-53
2022/07/29 00:12:42;;;;;;;1.00;0.80;;;;;25.30;100519.00;;;;2077264;28;20395;-53
2022/07/29 00:13:42;;;;;;;0.90;0.60;;;;;25.30;100522.00;;;;2078471;28;20210;-53
2022/07/29 00:14:43;;;;;;;1.07;0.80;;;;;25.30;100529.00;;;;2079001;28;20346;-53
2022/07/29 00:15:43;;;;;;;1.20;0.77;;;;;25.30;100518.00;;;;2086076;28;20314;-53
2022/07/29 00:16:43;;;;;;;0.80;0.50;;;;;25.30;100508.00;;;;2085058;28;20213;-53
2022/07/29 00:17:44;;;;;;;1.20;0.80;;;;;25.30;100518.00;;;;2085995;28;20217;-53
2022/07/29 00:18:44;;;;;;;1.57;0.90;;;;;25.30;100520.00;;;;2085941;28;20217;-53
2022/07/29 00:19:44;;;;;;;1.20;0.60;;;;;25.30;100512.00;;;;2086263;28;20216;-53
2022/07/29 00:20:45;;;;;;;0.90;0.70;;;;;25.30;100512.00;;;;2087013;28;20205;-54
2022/07/29 00:21:45;;;;;;;1.00;0.80;;;;;25.30;100510.00;;;;2086972;28;20211;-53
2022/07/29 00:22:45;;;;;;;1.00;0.60;;;;;25.20;100511.00;;;;2086710;28;20216;-53
2022/07/29 00:23:46;;;;;;;0.90;0.63;;;;;25.30;100512.00;;;;2086920;28;20200;-53
2022/07/29 00:24:49;;;;;;;1.33;0.73;;;;;25.20;100507.00;;;;2087013;28;20205;-53
2022/07/29 00:25:49;;;;;;;1.55;0.98;;;;;25.30;100504.00;;;;2086744;28;20984;-53
2022/07/29 00:26:50;;;;;;;1.60;0.90;;;;;25.30;100504.00;;;;2086715;28;20224;-53
2022/07/29 00:27:50;;;;;;;1.30;0.70;;;;;25.30;100503.00;;;;2086073;28;20212;-53
2022/07/29 00:28:50;;;;;;;1.37;0.70;;;;;25.30;100497.00;;;;2084851;28;20224;-53
2022/07/29 00:29:51;;;;;;;1.03;0.70;;;;;25.30;100494.00;;;;2078436;28;20256;-53
2022/07/29 00:30:51;;;;;;;1.10;0.93;;;;;25.30;100500.00;;;;2077980;28;20283;-53
2022/07/29 00:31:51;;;;;;;1.63;0.90;;;;;25.30;100499.00;;;;2078463;28;20221;-53
2022/07/29 00:32:52;;;;;;;1.43;0.73;;;;;25.30;100500.00;;;;2078312;28;20304;-53
2022/07/29 00:33:52;;;;;;;1.20;0.70;;;;;24.50;100495.00;;;;2084875;28;20221;-53
2022/07/29 00:36:11;;;;;;;1.08;0.65;;;;;25.30;100497.00;;;;2085681;28;20220;-54
2022/07/29 00:37:11;;;;;;;0.97;0.70;;;;;25.30;100491.00;;;;2086003;28;20209;-53
2022/07/29 00:38:13;;;;;;;1.00;0.70;;;;;25.30;100487.00;;;;2085388;28;20244;-52
2022/07/29 00:39:13;;;;;;;1.10;0.70;;;;;25.30;100484.00;;;;2086192;28;20232;-53
2022/07/29 00:40:14;;;;;;;1.00;0.73;;;;;25.30;100491.00;;;;2085785;28;20301;-53
2022/07/29 00:41:14;;;;;;;0.87;0.60;;;;;25.30;100485.00;;;;2082065;28;20714;-53
2022/07/29 00:42:16;;;;;;;1.23;0.70;;;;;25.20;100482.00;;;;2076582;28;20209;-54
2022/07/29 00:43:16;;;;;;;0.93;0.70;;;;;25.30;100482.00;;;;2077666;28;20578;-54
2022/07/29 00:44:17;;;;;;;1.40;0.70;;;;;25.20;100482.00;;;;2078544;28;20209;-54
2022/07/29 00:45:17;;;;;;;1.30;0.80;;;;;25.30;100481.00;;;;2077235;28;20228;-53
2022/07/29 00:46:17;;;;;;;1.63;1.00;;;;;25.30;100479.00;;;;2077694;28;20229;-53
2022/07/29 00:47:18;;;;;;;0.90;0.70;;;;;25.30;100476.00;;;;2077954;28;20221;-53
2022/07/29 00:48:18;;;;;;;0.97;0.70;;;;;25.30;100468.00;;;;2078026;28;20275;-53
2022/07/29 00:49:18;;;;;;;0.93;0.60;;;;;25.30;100451.00;;;;2078443;28;20315;-54
2022/07/29 00:50:19;;;;;;;1.50;0.73;;;;;25.30;100473.00;;;;2078252;28;20224;-53
2022/07/29 00:51:19;;;;;;;0.80;0.63;;;;;25.30;100465.00;;;;2078230;28;20221;-53
2022/07/29 00:52:19;;;;;;;1.20;0.80;;;;;25.30;100464.00;;;;2078336;28;20686;-52
2022/07/29 00:53:20;;;;;;;1.10;0.80;;;;;25.30;100467.00;;;;2069517;28;20769;-53
2022/07/29 00:54:20;;;;;;;1.80;0.83;;;;;25.30;100461.00;;;;2061301;28;20692;-53
2022/07/29 00:55:20;;;;;;;1.20;0.80;;;;;25.30;100467.00;;;;2077348;28;20248;-53
2022/07/29 00:56:21;;;;;;;0.97;0.70;;;;;25.30;100459.00;;;;2078475;28;20220;-53
2022/07/29 00:57:21;;;;;;;1.77;0.70;;;;;25.20;100459.00;;;;2077702;28;20311;-52
2022/07/29 00:58:22;;;;;;;1.30;0.73;;;;;25.20;100449.00;;;;2078401;28;20222;-53
2022/07/29 00:59:22;;;;;;;1.53;0.90;;;;;25.20;100457.00;;;;2077933;28;21280;-53
2022/07/29 01:00:24;;;;;;;1.17;0.77;;;;;25.20;100456.00;;;;2077953;28;20248;-53
2022/07/29 01:01:25;;;;;;;1.70;0.90;;;;;25.30;100459.00;;;;2078705;28;20233;-52
2022/07/29 01:02:25;;;;;;;1.20;0.73;;;;;25.30;100456.00;;;;2078495;28;20590;-53
2022/07/29 01:03:26;;;;;;;1.20;0.77;;;;;25.20;100451.00;;;;2078667;28;20296;-53
2022/07/29 01:04:26;;;;;;;1.43;0.73;;;;;25.30;100456.00;;;;2077923;28;20290;-53
2022/07/29 01:05:27;;;;;;;0.70;0.53;;;;;25.30;100416.00;;;;2077734;28;20217;-52
2022/07/29 01:06:27;;;;;;;1.10;0.70;;;;;25.10;100448.00;;;;2077867;28;20217;-53
2022/07/29 01:07:28;;;;;;;0.90;0.80;;;;;25.20;100453.00;;;;2076777;28;20217;-52
2022/07/29 01:08:28;;;;;;;0.90;0.80;;;;;25.30;100447.00;;;;2078074;28;20437;-53
2022/07/29 01:09:29;;;;;;;1.00;0.90;;;;;25.20;100454.00;;;;2077111;28;20290;-52
2022/07/29 01:10:30;;;;;;;1.10;0.70;;;;;25.20;100455.00;;;;2077676;28;20215;-53
2022/07/29 01:11:30;;;;;;;1.27;0.87;;;;;25.20;100454.00;;;;2077945;28;20209;-52
2022/07/29 01:12:33;;;;;;;1.40;0.83;;;;;25.20;100452.00;;;;2077954;28;20260;-52
2022/07/29 01:13:34;;;;;;;1.10;0.95;;;;;25.20;100454.00;;;;2070044;28;20272;-52
2022/07/29 01:14:34;;;;;;;0.90;0.70;;;;;25.20;100401.00;;;;2076746;28;20217;-52
2022/07/29 01:15:43;;;;;;;1.00;0.60;;;;;25.20;100464.00;;;;2077961;28;20239;-53
2022/07/29 01:16:51;;;;;;;0.80;0.60;;;;;25.20;100445.00;;;;2080933;28;20228;-53
2022/07/29 01:18:11;;;;;;;1.50;0.80;;;;;25.20;100442.00;;;;2084501;28;20216;-52
2022/07/29 01:19:50;;;;;;;1.15;0.70;;;;;25.20;100439.00;;;;2082418;28;20712;-53
2022/07/29 01:21:28;;;;;;;0.95;0.77;;;;;25.20;100440.00;;;;2073679;28;20574;-53
2022/07/29 01:22:34;;;;;;;1.35;0.60;;;;;25.20;100435.00;;;;2083560;28;20657;-52
2022/07/29 01:24:04;;;;;;;0.90;0.70;;;;;25.20;100427.00;;;;2086437;28;20304;-52
2022/07/29 01:25:10;;;;;;;1.10;0.65;;;;;25.20;100432.00;;;;2085631;28;20225;-53
2022/07/29 01:26:17;;;;;;;1.50;0.80;;;;;25.20;100426.00;;;;2060128;28;20710;-53
2022/07/29 01:28:05;;;;;;;1.27;0.82;;;;;25.20;100432.00;;;;2078175;28;20284;-52
2022/07/29 01:29:25;;;;;;;1.40;0.80;;;;;25.20;100428.00;;;;2073320;28;20222;-52
2022/07/29 01:30:25;;;;;;;1.00;0.70;;;;;25.20;100432.00;;;;2081827;28;20217;-53
2022/07/29 01:31:40;;;;;;;0.80;0.70;;;;;25.20;100427.00;;;;2076967;28;20725;-52
2022/07/29 01:32:41;;;;;;;1.40;0.80;;;;;25.20;100437.00;;;;2061597;28;20655;-54
2022/07/29 01:33:48;;;;;;;1.10;0.70;;;;;25.20;100433.00;;;;2064334;28;20269;-54
2022/07/29 01:34:54;;;;;;;0.85;0.70;;;;;25.20;100427.00;;;;2079151;28;20892;-53
2022/07/29 01:35:54;;;;;;;1.55;0.80;;;;;25.20;100433.00;;;;2079377;28;20223;-52
2022/07/29 01:37:01;;;;;;;1.17;0.83;;;;;25.20;100389.00;;;;2079219;28;20740;-52
2022/07/29 01:38:09;;;;;;;1.33;0.80;;;;;25.20;100432.00;;;;2075702;28;20209;-52
2022/07/29 01:39:12;;;;;;;0.90;0.80;;;;;25.20;100427.00;;;;2072043;28;20622;-53
2022/07/29 01:40:18;;;;;;;1.70;0.88;;;;;25.20;100429.00;;;;2067475;28;20318;-53
2022/07/29 01:41:18;;;;;;;1.20;1.00;;;;;25.20;100431.00;;;;2080093;28;20221;-53
2022/07/29 01:42:34;;;;;;;1.13;0.73;;;;;25.20;100417.00;;;;2087603;28;20225;-52
2022/07/29 01:43:46;;;;;;;1.00;0.80;;;;;25.20;100422.00;;;;2087588;28;20212;-52
2022/07/29 01:45:02;;;;;;;1.27;0.98;;;;;25.20;100407.00;;;;2087086;28;20243;-53
2022/07/29 01:46:05;;;;;;;1.02;0.77;;;;;25.20;100430.00;;;;2087451;28;20208;-52
2022/07/29 01:47:11;;;;;;;1.05;0.70;;;;;25.20;100434.00;;;;2087495;28;20267;-52
2022/07/29 01:48:26;;;;;;;0.95;0.80;;;;;25.20;100430.00;;;;2086289;28;20221;-54
2022/07/29 01:49:28;;;;;;;1.10;0.80;;;;;25.20;100423.00;;;;2085385;28;20599;-52
2022/07/29 01:50:33;;;;;;;1.08;0.80;;;;;25.20;100425.00;;;;2082276;28;20304;-52
2022/07/29 01:51:38;;;;;;;1.00;0.60;;;;;25.20;100430.00;;;;2076307;28;20220;-52
2022/07/29 01:52:53;;;;;;;1.13;0.68;;;;;25.20;100422.00;;;;2079385;28;20443;-52
2022/07/29 01:54:02;;;;;;;1.00;0.80;;;;;25.20;100421.00;;;;2075185;28;20796;-53
2022/07/29 01:55:06;;;;;;;1.90;0.80;;;;;25.20;100420.00;;;;2071767;28;20218;-53
2022/07/29 01:56:06;;;;;;;1.45;0.90;;;;;25.20;100411.00;;;;2071638;28;20218;-52
2022/07/29 01:57:07;;;;;;;1.33;0.70;;;;;25.20;100431.00;;;;2079162;28;20260;-53
2022/07/29 01:58:07;;;;;;;1.00;0.70;;;;;25.20;100412.00;;;;2086620;28;20215;-53
2022/07/29 01:59:08;;;;;;;1.60;0.90;;;;;25.20;100412.00;;;;2087433;28;20209;-52
2022/07/29 02:00:09;;;;;;;0.90;0.70;;;;;25.20;100413.00;;;;2079164;28;20233;-52
2022/07/29 02:01:09;;;;;;;1.53;0.60;;;;;25.20;100410.00;;;;2087277;28;20232;-52
2022/07/29 02:02:10;;;;;;;1.73;0.90;;;;;25.20;100403.00;;;;2087686;28;20459;-53
2022/07/29 02:03:11;;;;;;;1.10;0.80;;;;;25.20;100410.00;;;;2087010;28;20220;-52
2022/07/29 02:04:11;;;;;;;1.52;1.02;;;;;25.20;100406.00;;;;2070885;28;20241;-52
2022/07/29 02:05:13;;;;;;;1.67;0.67;;;;;25.20;100375.00;;;;2071013;28;20349;-53
2022/07/29 02:06:16;;;;;;;1.05;0.70;;;;;25.20;100408.00;;;;2062764;28;20382;-52
2022/07/29 02:07:19;;;;;;;1.48;0.90;;;;;25.20;100415.00;;;;2062283;28;20335;-52
2022/07/29 02:08:19;;;;;;;1.27;0.70;;;;;25.20;100393.00;;;;2069598;28;20214;-53
2022/07/29 02:09:19;;;;;;;1.20;0.70;;;;;25.20;100409.00;;;;2079124;28;20328;-53
2022/07/29 02:10:22;;;;;;;1.17;0.67;;;;;25.20;100409.00;;;;2078918;28;20709;-53
2022/07/29 02:11:22;;;;;;;1.42;0.73;;;;;25.20;100411.00;;;;2078975;28;20472;-53
2022/07/29 02:12:22;;;;;;;1.27;0.90;;;;;25.20;100393.00;;;;2062936;28;20648;-53
2022/07/29 02:13:23;;;;;;;1.37;0.70;;;;;25.20;100391.00;;;;2077429;28;20209;-53
2022/07/29 02:14:23;;;;;;;0.90;0.80;;;;;25.20;100415.00;;;;2062719;28;20219;-53
2022/07/29 02:15:27;;;;;;;1.20;0.80;;;;;25.20;100413.00;;;;2062866;28;20261;-53
2022/07/29 02:16:29;;;;;;;1.50;0.80;;;;;25.20;100411.00;;;;2071141;28;20214;-53
2022/07/29 02:17:33;;;;;;;1.10;0.70;;;;;25.20;100406.00;;;;2069948;28;20634;-53
2022/07/29 02:18:33;;;;;;;1.08;0.80;;;;;25.20;100407.00;;;;2078808;28;20220;-53
2022/07/29 02:19:34;;;;;;;1.10;0.80;;;;;25.20;100409.00;;;;2079137;28;20719;-52
2022/07/29 02:20:34;;;;;;;1.63;1.00;;;;;25.20;100382.00;;;;2079029;28;20241;-53
2022/07/29 02:21:34;;;;;;;1.70;0.70;;;;;25.20;100396.00;;;;2079135;28;20311;-53
2022/07/29 02:22:36;;;;;;;1.20;0.70;;;;;25.20;100381.00;;;;2078968;28;20209;-52
2022/07/29 02:23:37;;;;;;;0.93;0.70;;;;;25.20;100394.00;;;;2087165;28;20300;-52
2022/07/29 02:24:37;;;;;;;1.33;0.70;;;;;25.20;100398.00;;;;2087203;28;20601;-52
2022/07/29 02:25:37;;;;;;;1.33;0.90;;;;;25.20;100368.00;;;;2087085;28;20585;-53
2022/07/29 02:26:38;;;;;;;2.50;1.27;;;;;25.20;100398.00;;;;2082399;28;20264;-52
2022/07/29 02:27:38;;;;;;;1.10;0.77;;;;;25.20;100393.00;;;;2070275;28;20948;-52
2022/07/29 02:28:39;;;;;;;1.20;0.67;;;;;25.20;100400.00;;;;2078868;28;20231;-53
2022/07/29 02:29:39;;;;;;;1.00;0.70;;;;;25.20;100398.00;;;;2075831;28;20218;-53
2022/07/29 02:30:40;;;;;;;1.17;0.70;;;;;25.20;100395.00;;;;2078303;28;20259;-52
2022/07/29 02:31:43;;;;;;;1.30;0.90;;;;;25.20;100366.00;;;;2077512;28;20217;-52
2022/07/29 02:32:43;;;;;;;1.20;0.80;;;;;25.20;100397.00;;;;2077335;28;20221;-53
2022/07/29 02:33:43;;;;;;;1.27;0.77;;;;;25.20;100400.00;;;;2078959;28;20456;-52
2022/07/29 02:34:44;;;;;;;1.00;0.80;;;;;25.20;100386.00;;;;2087094;28;20753;-52
2022/07/29 02:35:45;;;;;;;1.13;0.80;;;;;25.20;100396.00;;;;2087257;28;20663;-53
2022/07/29 02:36:45;;;;;;;1.50;0.70;;;;;25.20;100392.00;;;;2076396;28;20673;-52
2022/07/29 02:38:49;;;;;;;1.30;0.80;;;;;25.20;100359.00;;;;2085083;28;20498;-52
2022/07/29 02:39:06;;;;;;;1.05;0.60;;;;;25.20;100392.00;;;;2079416;28;20237;-52
2022/07/29 02:40:09;;;;;;;1.03;0.60;;;;;25.20;100361.00;;;;2070095;28;20245;-52
2022/07/29 02:41:11;;;;;;;1.50;0.70;;;;;25.20;100396.00;;;;2062930;28;20215;-52
2022/07/29 02:42:13;;;;;;;1.40;0.70;;;;;25.20;100391.00;;;;2070876;28;20218;-52
2022/07/29 02:43:13;;;;;;;1.20;0.70;;;;;25.20;100393.00;;;;2062743;28;20461;-52
2022/07/29 02:44:19;;;;;;;0.97;0.70;;;;;25.20;100396.00;;;;2062608;28;20457;-52
2022/07/29 02:45:19;;;;;;;1.52;1.05;;;;;25.20;100383.00;;;;2078770;28;20229;-53
2022/07/29 02:46:23;;;;;;;0.90;0.80;;;;;25.20;100391.00;;;;2070752;28;20579;-53
2022/07/29 02:47:43;;;;;;;1.15;0.70;;;;;25.20;100410.00;;;;2062558;28;20226;-53
2022/07/29 02:48:52;;;;;;;1.33;0.90;;;;;25.20;100402.00;;;;2078472;28;20231;-52
2022/07/29 02:50:00;;;;;;;1.45;0.80;;;;;25.20;100408.00;;;;2079580;28;20236;-53
2022/07/29 02:51:17;;;;;;;1.02;0.70;;;;;25.20;100404.00;;;;2079635;28;20796;-53
2022/07/29 02:52:27;;;;;;;1.13;0.60;;;;;25.20;100400.00;;;;2086936;28;20220;-52
2022/07/29 02:53:27;;;;;;;1.38;1.00;;;;;25.20;100400.00;;;;2086953;28;20212;-53
2022/07/29 02:54:38;;;;;;;1.20;0.63;;;;;25.20;100398.00;;;;2086857;28;20209;-52
2022/07/29 02:55:40;;;;;;;1.80;0.75;;;;;25.20;100405.00;;;;2072039;28;20206;-52
2022/07/29 02:56:40;;;;;;;0.90;0.70;;;;;25.20;100399.00;;;;2078854;28;20216;-52
2022/07/29 02:57:43;;;;;;;1.00;0.60;;;;;25.20;100406.00;;;;2077875;28;20449;-52
2022/07/29 02:58:49;;;;;;;1.65;0.80;;;;;25.20;100409.00;;;;2084321;28;20241;-52
2022/07/29 02:59:51;;;;;;;1.65;0.80;;;;;25.20;100395.00;;;;2078439;28;20505;-54
2022/07/29 03:00:51;;;;;;;1.20;0.70;;;;;25.20;100397.00;;;;2078961;28;20876;-53
2022/07/29 03:01:52;;;;;;;1.10;0.80;;;;;25.10;100397.00;;;;2086746;28;20296;-53
2022/07/29 03:02:53;;;;;;;1.33;0.87;;;;;25.20;100374.00;;;;2080637;28;20217;-53
2022/07/29 03:03:53;;;;;;;1.48;0.85;;;;;25.10;100403.00;;;;2078869;28;20213;-53
2022/07/29 03:04:54;;;;;;;1.07;0.83;;;;;25.10;100400.00;;;;2070630;28;20241;-53
2022/07/29 03:05:55;;;;;;;1.53;0.80;;;;;25.20;100359.00;;;;2076819;28;20223;-52
2022/07/29 03:06:56;;;;;;;1.40;0.70;;;;;25.20;100400.00;;;;2078858;28;20216;-52
2022/07/29 03:08:01;;;;;;;0.90;0.63;;;;;25.20;100406.00;;;;2069664;28;20206;-52
2022/07/29 03:09:02;;;;;;;1.00;0.90;;;;;25.10;100403.00;;;;2083857;28;20208;-52
2022/07/29 03:10:02;;;;;;;1.00;0.80;;;;;25.10;100411.00;;;;2078868;28;20232;-53
2022/07/29 03:11:03;;;;;;;1.20;0.83;;;;;25.10;100425.00;;;;2086819;28;20747;-53
2022/07/29 03:12:04;;;;;;;1.20;0.77;;;;;25.20;100411.00;;;;2086903;28;20217;-53
2022/07/29 03:13:04;;;;;;;0.90;0.53;;;;;25.10;100404.00;;;;2070419;28;20210;-52
2022/07/29 03:14:04;;;;;;;1.00;0.70;;;;;25.10;100423.00;;;;2070654;28;20312;-53
2022/07/29 03:15:05;;;;;;;1.17;0.70;;;;;25.10;100427.00;;;;2070356;28;20234;-53
2022/07/29 03:16:05;;;;;;;1.47;0.67;;;;;25.10;100434.00;;;;2070482;28;20708;-52
2022/07/29 03:17:06;;;;;;;1.00;0.73;;;;;25.10;100440.00;;;;2078480;28;20215;-52
2022/07/29 03:18:06;;;;;;;1.20;0.80;;;;;25.10;100447.00;;;;2086189;28;20312;-52
2022/07/29 03:19:06;;;;;;;1.13;0.87;;;;;25.10;100458.00;;;;2078853;28;20217;-52
2022/07/29 03:20:07;;;;;;;2.37;0.80;;;;;25.10;100440.00;;;;2086677;28;20575;-53
2022/07/29 03:21:08;;;;;;;0.80;0.70;;;;;25.10;100438.00;;;;2078420;28;20725;-52
2022/07/29 03:22:08;;;;;;;1.00;0.83;;;;;25.10;100449.00;;;;2086621;28;20448;-53
2022/07/29 03:23:08;;;;;;;1.03;0.87;;;;;25.10;100442.00;;;;2086684;28;20221;-52
2022/07/29 03:24:09;;;;;;;1.03;0.90;;;;;25.10;100439.00;;;;2087499;28;20237;-52
2022/07/29 03:25:10;;;;;;;1.40;1.10;;;;;25.10;100435.00;;;;2087223;28;20223;-53
2022/07/29 03:26:11;;;;;;;1.40;1.00;;;;;25.10;100431.00;;;;2087716;28;20244;-53
2022/07/29 03:27:11;;;;;;;0.90;0.65;;;;;25.10;100427.00;;;;2086687;28;20217;-52
2022/07/29 03:28:12;;;;;;;0.80;0.70;;;;;25.10;100427.00;;;;2085883;28;20227;-53
2022/07/29 03:29:12;;;;;;;1.40;1.10;;;;;25.10;100433.00;;;;2087380;28;20213;-53
2022/07/29 03:30:13;;;;;;;1.80;0.90;;;;;25.10;100434.00;;;;2087555;28;20247;-53
2022/07/29 03:31:13;;;;;;;1.00;0.70;;;;;25.10;100435.00;;;;2087205;28;20216;-53
2022/07/29 03:32:13;;;;;;;1.60;0.87;;;;;25.20;100434.00;;;;2087618;28;20629;-52
2022/07/29 03:33:14;;;;;;;1.03;0.90;;;;;25.10;100429.00;;;;2087450;28;21154;-53
2022/07/29 03:34:14;;;;;;;1.90;0.93;;;;;25.10;100433.00;;;;2087309;28;20576;-53
2022/07/29 03:35:16;;;;;;;1.43;0.90;;;;;25.10;100427.00;;;;2087570;28;20216;-53
2022/07/29 03:36:16;;;;;;;1.23;0.80;;;;;25.10;100419.00;;;;2087315;28;20741;-52
2022/07/29 03:37:17;;;;;;;1.00;0.60;;;;;25.10;100224.00;;;;2081769;28;20217;-52
2022/07/29 03:38:17;;;;;;;1.03;0.60;;;;;25.10;100427.00;;;;2083275;28;20212;-53
2022/07/29 03:39:20;;;;;;;1.40;0.80;;;;;25.10;100388.00;;;;2086736;28;20669;-52
2022/07/29 03:40:23;;;;;;;1.45;0.93;;;;;25.10;100390.00;;;;2086843;28;20609;-52
2022/07/29 03:41:23;;;;;;;1.20;0.70;;;;;25.10;100426.00;;;;2086484;28;20320;-53
2022/07/29 03:42:25;;;;;;;1.20;0.83;;;;;25.10;100416.00;;;;2086615;28;20694;-53
2022/07/29 03:43:25;;;;;;;1.10;0.70;;;;;25.10;100425.00;;;;2086646;28;20255;-53
2022/07/29 03:44:26;;;;;;;1.20;0.70;;;;;25.10;100439.00;;;;2086389;28;20705;-53
2022/07/29 03:45:26;;;;;;;1.10;0.80;;;;;25.10;100440.00;;;;2085642;28;20765;-57
2022/07/29 03:46:26;;;;;;;1.10;0.83;;;;;25.10;100443.00;;;;2086733;28;20209;-55
2022/07/29 03:47:27;;;;;;;1.07;0.80;;;;;25.10;100447.00;;;;2085281;28;20217;-54
2022/07/29 03:48:29;;;;;;;1.38;0.80;;;;;25.10;100443.00;;;;2078314;28;20221;-54
2022/07/29 03:49:29;;;;;;;1.05;0.80;;;;;25.20;100439.00;;;;2062178;28;20630;-54
2022/07/29 03:50:29;;;;;;;1.73;0.87;;;;;25.10;100445.00;;;;2078479;28;20259;-53
2022/07/29 03:51:30;;;;;;;1.83;0.90;;;;;25.10;100448.00;;;;2069294;28;20323;-53
2022/07/29 03:52:30;;;;;;;1.53;0.90;;;;;25.10;100440.00;;;;2078505;28;20263;-53
2022/07/29 03:53:32;;;;;;;0.90;0.70;;;;;25.10;100449.00;;;;2078340;28;20658;-53
2022/07/29 03:54:32;;;;;;;1.20;0.90;;;;;25.10;100438.00;;;;2062127;28;20659;-53
2022/07/29 03:55:36;;;;;;;0.97;0.70;;;;;25.10;100461.00;;;;2062437;28;20219;-53
2022/07/29 03:56:39;;;;;;;1.00;0.77;;;;;25.20;100456.00;;;;2070290;28;21226;-53
2022/07/29 03:57:39;;;;;;;1.00;0.80;;;;;25.10;100460.00;;;;2077943;28;20226;-53
2022/07/29 03:58:40;;;;;;;1.20;0.70;;;;;25.10;100458.00;;;;2086676;28;20292;-52
2022/07/29 03:59:40;;;;;;;1.43;0.77;;;;;25.10;100460.00;;;;2086455;28;20685;-52
2022/07/29 04:00:41;;;;;;;1.00;0.80;;;;;25.10;100472.00;;;;2086199;28;20224;-53
2022/07/29 04:01:42;;;;;;;1.02;0.93;;;;;25.10;100473.00;;;;2078530;28;20214;-52
2022/07/29 04:02:46;;;;;;;1.37;0.90;;;;;25.10;100470.00;;;;2070327;28;20349;-52
2022/07/29 04:03:47;;;;;;;1.00;0.73;;;;;25.10;100455.00;;;;2086253;28;20977;-52
2022/07/29 04:04:47;;;;;;;0.80;0.70;;;;;25.10;100470.00;;;;2086437;28;20240;-52
2022/07/29 04:06:05;;;;;;;1.07;0.90;;;;;25.10;100463.00;;;;2086518;28;20238;-52
2022/07/29 04:07:05;;;;;;;1.60;0.90;;;;;25.10;100472.00;;;;2087147;28;20235;-53
2022/07/29 04:08:06;;;;;;;1.40;0.80;;;;;25.10;100476.00;;;;2086490;28;20452;-52
2022/07/29 04:09:06;;;;;;;1.00;0.80;;;;;25.10;100487.00;;;;2086977;28;20785;-54
2022/07/29 04:10:07;;;;;;;2.07;0.90;;;;;25.10;100488.00;;;;2085009;28;20300;-53
2022/07/29 04:11:08;;;;;;;1.10;0.77;;;;;25.10;100494.00;;;;2085895;28;20605;-52
2022/07/29 04:12:08;;;;;;;1.47;0.80;;;;;25.10;100491.00;;;;2086962;28;20216;-52
2022/07/29 04:13:08;;;;;;;1.37;0.80;;;;;25.10;100494.00;;;;2085097;28;20220;-53
2022/07/29 04:14:09;;;;;;;1.93;0.97;;;;;25.10;100501.00;;;;2086401;28;20209;-53
2022/07/29 04:15:10;;;;;;;1.20;0.77;;;;;25.10;100498.00;;;;2086998;28;20233;-52
2022/07/29 04:16:10;;;;;;;1.00;0.90;;;;;25.10;100502.00;;;;2087212;28;20564;-53
2022/07/29 04:17:10;;;;;;;1.00;0.80;;;;;25.10;100505.00;;;;2086673;28;20306;-52
2022/07/29 04:18:11;;;;;;;1.23;0.77;;;;;25.10;100500.00;;;;2085747;28;20209;-53
2022/07/29 04:19:11;;;;;;;1.30;0.70;;;;;25.10;100495.00;;;;2086934;28;20216;-52
2022/07/29 04:20:13;;;;;;;1.20;0.80;;;;;25.10;100490.00;;;;2086956;28;20213;-53
2022/07/29 04:21:13;;;;;;;1.10;0.70;;;;;25.10;100492.00;;;;2086553;28;20236;-53
2022/07/29 04:22:13;;;;;;;1.60;0.90;;;;;25.10;100503.00;;;;2087099;28;20220;-53
2022/07/29 04:23:14;;;;;;;1.20;0.70;;;;;25.10;100497.00;;;;2078676;28;20217;-53
2022/07/29 04:24:14;;;;;;;1.00;0.90;;;;;25.10;100502.00;;;;2093551;28;20204;-52
2022/07/29 04:25:14;;;;;;;1.20;0.80;;;;;25.10;100498.00;;;;2092939;28;20286;-53
2022/07/29 04:26:16;;;;;;;1.40;0.80;;;;;25.10;100494.00;;;;2086977;28;20300;-53
2022/07/29 04:27:16;;;;;;;1.27;0.88;;;;;25.10;100494.00;;;;2086510;28;20263;-53
2022/07/29 04:28:16;;;;;;;1.50;0.90;;;;;24.40;100489.00;;;;2086988;28;20216;-53
2022/07/29 04:29:17;;;;;;;1.57;0.90;;;;;25.10;100497.00;;;;2087180;28;20274;-53
2022/07/29 04:30:17;;;;;;;1.77;0.90;;;;;25.10;100497.00;;;;2087050;28;20581;-52
2022/07/29 04:31:18;;;;;;;1.30;1.00;;;;;25.10;100490.00;;;;2086698;28;20314;-52
2022/07/29 04:32:18;;;;;;;1.23;0.87;;;;;25.10;100493.00;;;;2087166;28;20220;-53
2022/07/29 04:33:18;;;;;;;1.50;0.90;;;;;25.10;100491.00;;;;2087102;28;20221;-53
2022/07/29 04:34:19;;;;;;;1.00;0.83;;;;;25.10;100489.00;;;;2086890;28;20296;-53
2022/07/29 04:35:19;;;;;;;2.30;1.47;;;;;25.10;100498.00;;;;2086953;28;20209;-53
2022/07/29 04:36:20;;;;;;;1.17;0.80;;;;;25.10;100481.00;;;;2086378;28;20209;-53
2022/07/29 04:37:20;;;;;;;1.10;0.87;;;;;25.10;100471.00;;;;2085500;28;20708;-52
2022/07/29 04:38:20;;;;;;;1.07;0.87;;;;;25.10;100484.00;;;;2087080;28;20361;-53
2022/07/29 04:39:21;;;;;;;1.00;0.70;;;;;25.10;100477.00;;;;2087135;28;20260;-53
2022/07/29 04:40:21;;;;;;;1.80;0.90;;;;;25.10;100492.00;;;;2087142;28;20672;-53
2022/07/29 04:41:21;;;;;;;1.30;0.80;;;;;25.10;100491.00;;;;2086834;28;20578;-52
2022/07/29 04:42:21;;;;;;;1.10;0.90;;;;;25.10;100493.00;;;;2086911;28;20793;-53
2022/07/29 04:43:22;;;;;;;2.10;0.83;;;;;25.10;100495.00;;;;2086708;28;20220;-53
2022/07/29 04:44:22;;;;;;;1.43;0.80;;;;;25.10;100487.00;;;;2086788;28;20355;-53
2022/07/29 04:45:23;;;;;;;1.33;0.60;;;;;25.10;100482.00;;;;2086960;28;20223;-52
2022/07/29 04:46:23;;;;;;;1.20;0.80;;;;;25.10;100493.00;;;;2086313;28;20216;-53
2022/07/29 04:47:23;;;;;;;1.67;0.90;;;;;25.10;100490.00;;;;2082228;28;20216;-52
2022/07/29 04:48:24;;;;;;;1.13;0.80;;;;;25.10;100493.00;;;;2078650;28;20213;-54
2022/07/29 04:49:24;;;;;;;1.03;0.90;;;;;25.10;100491.00;;;;2078980;28;20233;-53
2022/07/29 04:50:24;;;;;;;1.23;0.80;;;;;25.00;100489.00;;;;2078679;28;20218;-54
2022/07/29 04:51:25;;;;;;;1.17;0.90;;;;;25.10;100480.00;;;;2078475;28;20248;-53
2022/07/29 04:52:25;;;;;;;1.17;0.80;;;;;25.10;100481.00;;;;2078967;28;20767;-54
2022/07/29 04:53:25;;;;;;;1.30;1.00;;;;;25.10;100485.00;;;;2086821;28;20226;-53
2022/07/29 04:54:26;;;;;;;1.70;0.83;;;;;25.10;100475.00;;;;2086891;28;20221;-52
2022/07/29 04:55:26;;;;;;;1.07;0.93;;;;;25.10;100467.00;;;;2086883;28;20608;-54
2022/07/29 04:56:27;;;;;;;1.33;0.87;;;;;25.10;100475.00;;;;2083355;28;20595;-53
2022/07/29 04:57:27;;;;;;;1.47;0.77;;;;;25.10;100472.00;;;;2077405;28;20217;-53
2022/07/29 04:58:27;;;;;;;1.00;0.80;;;;;25.10;100466.00;;;;2078771;28;20221;-53
2022/07/29 04:59:28;;;;;;;1.47;1.00;;;;;25.10;100472.00;;;;2078794;28;20213;-53
2022/07/29 05:00:28;;;;;;;0.97;0.77;;;;;25.10;100467.00;;;;2078646;28;20237;-54
2022/07/29 05:01:28;;;;;;;1.37;0.90;;;;;25.10;100458.00;;;;2078518;28;20214;-53
2022/07/29 05:02:29;;;;;;;1.40;0.80;;;;;25.10;100464.00;;;;2078006;28;20218;-54
2022/07/29 05:03:29;;;;;;;1.40;0.87;;;;;25.10;100466.00;;;;2079494;28;20213;-54
2022/07/29 05:04:29;;;;;;;1.97;0.90;;;;;25.10;100464.00;;;;2080258;28;20213;-53
2022/07/29 05:05:30;;;;;;;1.00;0.90;;;;;25.10;100467.00;;;;2080401;28;20205;-54
2022/07/29 05:06:30;;;;;;;1.40;0.80;;;;;25.10;100460.00;;;;2080384;28;20237;-54
2022/07/29 05:07:30;;;;;;;1.03;0.83;;;;;25.10;100461.00;;;;2079603;28;20684;-53
2022/07/29 05:08:31;;;;;;;1.10;0.80;;;;;25.10;100465.00;;;;2080364;28;20628;-53
2022/07/29 05:09:32;;;;;;;1.13;0.93;;;;;25.10;100471.00;;;;2087602;28;20209;-53